sensor_id;sensor_type;location;lat;lon;timestamp;temperature;humidity
45489;DHT22;31236;55.026;61.042;2022-07-23T00:00:55;16.20;82.60
45489;DHT22;31236;55.026;61.042;2022-07-23T00:03:25;16.20;82.70
45489;DHT22;31236;55.026;61.042;2022-07-23T00:05:55;16.20;82.80
45489;DHT22;31236;55.026;61.042;2022-07-23T00:08:27;16.20;82.70
45489;DHT22;31236;55.026;61.042;2022-07-23T00:10:57;16.20;82.80
45489;DHT22;31236;55.026;61.042;2022-07-23T00:13:29;16.20;82.90
45489;DHT22;31236;55.026;61.042;2022-07-23T00:16:00;16.10;83.00
45489;DHT22;31236;55.026;61.042;2022-07-23T00:18:30;16.10;83.10
45489;DHT22;31236;55.026;61.042;2022-07-23T00:21:00;16.10;83.30
45489;DHT22;31236;55.026;61.042;2022-07-23T00:23:31;16.10;83.30
45489;DHT22;31236;55.026;61.042;2022-07-23T00:26:01;16.00;83.00
45489;DHT22;31236;55.026;61.042;2022-07-23T00:28:32;16.10;83.10
45489;DHT22;31236;55.026;61.042;2022-07-23T00:31:03;16.10;83.40
45489;DHT22;31236;55.026;61.042;2022-07-23T00:33:33;16.10;83.10
45489;DHT22;31236;55.026;61.042;2022-07-23T00:36:03;16.10;83.10
45489;DHT22;31236;55.026;61.042;2022-07-23T00:38:34;16.20;83.20
45489;DHT22;31236;55.026;61.042;2022-07-23T00:41:04;16.30;83.20
45489;DHT22;31236;55.026;61.042;2022-07-23T00:43:34;16.30;83.10
45489;DHT22;31236;55.026;61.042;2022-07-23T00:46:05;16.40;83.10
45489;DHT22;31236;55.026;61.042;2022-07-23T00:48:35;16.40;83.10
45489;DHT22;31236;55.026;61.042;2022-07-23T00:51:06;16.30;82.90
45489;DHT22;31236;55.026;61.042;2022-07-23T00:53:36;16.40;83.00
45489;DHT22;31236;55.026;61.042;2022-07-23T00:56:07;16.40;83.30
45489;DHT22;31236;55.026;61.042;2022-07-23T00:58:37;16.40;83.50
45489;DHT22;31236;55.026;61.042;2022-07-23T01:01:11;16.30;83.50
45489;DHT22;31236;55.026;61.042;2022-07-23T01:03:44;16.30;83.50
45489;DHT22;31236;55.026;61.042;2022-07-23T01:06:14;16.30;83.50
45489;DHT22;31236;55.026;61.042;2022-07-23T01:08:45;16.30;83.60
45489;DHT22;31236;55.026;61.042;2022-07-23T01:11:16;16.40;83.70
45489;DHT22;31236;55.026;61.042;2022-07-23T01:13:48;16.40;83.80
45489;DHT22;31236;55.026;61.042;2022-07-23T01:16:21;16.40;83.80
45489;DHT22;31236;55.026;61.042;2022-07-23T01:18:53;16.40;83.70
45489;DHT22;31236;55.026;61.042;2022-07-23T01:21:25;16.40;83.90
45489;DHT22;31236;55.026;61.042;2022-07-23T01:23:55;16.40;83.70
45489;DHT22;31236;55.026;61.042;2022-07-23T01:26:26;16.50;83.80
45489;DHT22;31236;55.026;61.042;2022-07-23T01:28:56;16.50;83.90
45489;DHT22;31236;55.026;61.042;2022-07-23T01:31:26;16.50;83.90
45489;DHT22;31236;55.026;61.042;2022-07-23T01:33:56;16.60;84.00
45489;DHT22;31236;55.026;61.042;2022-07-23T01:36:28;16.60;84.10
45489;DHT22;31236;55.026;61.042;2022-07-23T01:38:59;16.70;83.90
45489;DHT22;31236;55.026;61.042;2022-07-23T01:41:29;16.70;84.00
45489;DHT22;31236;55.026;61.042;2022-07-23T01:44:00;16.80;84.10
45489;DHT22;31236;55.026;61.042;2022-07-23T01:46:31;16.80;84.10
45489;DHT22;31236;55.026;61.042;2022-07-23T01:49:03;16.80;84.00
45489;DHT22;31236;55.026;61.042;2022-07-23T01:51:35;16.90;83.70
45489;DHT22;31236;55.026;61.042;2022-07-23T01:54:09;16.90;83.60
45489;DHT22;31236;55.026;61.042;2022-07-23T01:56:39;17.00;83.50
45489;DHT22;31236;55.026;61.042;2022-07-23T01:59:09;17.10;83.60
45489;DHT22;31236;55.026;61.042;2022-07-23T02:01:40;17.10;83.60
45489;DHT22;31236;55.026;61.042;2022-07-23T02:04:10;17.20;83.40
45489;DHT22;31236;55.026;61.042;2022-07-23T02:06:40;17.30;83.40
45489;DHT22;31236;55.026;61.042;2022-07-23T02:09:12;17.40;83.70
45489;DHT22;31236;55.026;61.042;2022-07-23T02:11:43;17.40;83.30
45489;DHT22;31236;55.026;61.042;2022-07-23T02:14:13;17.50;83.40
45489;DHT22;31236;55.026;61.042;2022-07-23T02:16:43;17.60;83.30
45489;DHT22;31236;55.026;61.042;2022-07-23T02:19:13;17.60;83.00
45489;DHT22;31236;55.026;61.042;2022-07-23T02:21:44;17.70;83.00
45489;DHT22;31236;55.026;61.042;2022-07-23T02:24:14;17.80;82.70
45489;DHT22;31236;55.026;61.042;2022-07-23T02:26:45;17.90;82.60
45489;DHT22;31236;55.026;61.042;2022-07-23T02:29:15;18.00;82.50
45489;DHT22;31236;55.026;61.042;2022-07-23T02:31:46;18.00;82.50
45489;DHT22;31236;55.026;61.042;2022-07-23T02:34:16;18.10;82.30
45489;DHT22;31236;55.026;61.042;2022-07-23T02:36:46;18.20;82.20
45489;DHT22;31236;55.026;61.042;2022-07-23T02:39:17;18.30;82.30
45489;DHT22;31236;55.026;61.042;2022-07-23T02:41:49;18.40;81.70
45489;DHT22;31236;55.026;61.042;2022-07-23T02:44:19;18.40;81.20
45489;DHT22;31236;55.026;61.042;2022-07-23T02:46:50;18.50;81.00
45489;DHT22;31236;55.026;61.042;2022-07-23T02:49:20;18.60;80.80
45489;DHT22;31236;55.026;61.042;2022-07-23T02:51:50;18.60;80.40
45489;DHT22;31236;55.026;61.042;2022-07-23T02:54:20;18.70;80.80
45489;DHT22;31236;55.026;61.042;2022-07-23T02:56:50;18.80;81.20
45489;DHT22;31236;55.026;61.042;2022-07-23T02:59:21;18.90;80.60
45489;DHT22;31236;55.026;61.042;2022-07-23T03:01:51;19.10;80.10
45489;DHT22;31236;55.026;61.042;2022-07-23T03:04:22;19.10;79.70
45489;DHT22;31236;55.026;61.042;2022-07-23T03:06:52;19.20;79.90
45489;DHT22;31236;55.026;61.042;2022-07-23T03:09:23;19.30;78.70
45489;DHT22;31236;55.026;61.042;2022-07-23T03:11:53;19.30;78.40
45489;DHT22;31236;55.026;61.042;2022-07-23T03:14:23;19.40;78.60
45489;DHT22;31236;55.026;61.042;2022-07-23T03:16:55;19.50;79.10
45489;DHT22;31236;55.026;61.042;2022-07-23T03:19:27;19.60;79.10
45489;DHT22;31236;55.026;61.042;2022-07-23T03:21:57;19.70;77.90
45489;DHT22;31236;55.026;61.042;2022-07-23T03:24:27;19.80;78.60
45489;DHT22;31236;55.026;61.042;2022-07-23T03:27:19;19.90;78.60
45489;DHT22;31236;55.026;61.042;2022-07-23T03:29:51;20.00;77.80
45489;DHT22;31236;55.026;61.042;2022-07-23T03:32:21;20.10;77.30
45489;DHT22;31236;55.026;61.042;2022-07-23T03:34:52;20.20;77.00
45489;DHT22;31236;55.026;61.042;2022-07-23T03:37:23;20.20;76.90
45489;DHT22;31236;55.026;61.042;2022-07-23T03:39:53;20.40;77.60
45489;DHT22;31236;55.026;61.042;2022-07-23T03:42:23;20.50;76.10
45489;DHT22;31236;55.026;61.042;2022-07-23T03:44:54;20.60;76.80
45489;DHT22;31236;55.026;61.042;2022-07-23T03:47:24;20.60;75.80
45489;DHT22;31236;55.026;61.042;2022-07-23T03:49:55;20.70;76.50
45489;DHT22;31236;55.026;61.042;2022-07-23T03:52:25;20.90;76.80
45489;DHT22;31236;55.026;61.042;2022-07-23T03:54:55;21.00;76.70
45489;DHT22;31236;55.026;61.042;2022-07-23T03:57:26;21.10;75.60
45489;DHT22;31236;55.026;61.042;2022-07-23T03:59:56;21.30;76.30
45489;DHT22;31236;55.026;61.042;2022-07-23T04:02:26;21.40;74.20
45489;DHT22;31236;55.026;61.042;2022-07-23T04:04:56;21.60;73.10
45489;DHT22;31236;55.026;61.042;2022-07-23T04:07:27;21.70;74.10
45489;DHT22;31236;55.026;61.042;2022-07-23T04:09:58;21.80;72.80
45489;DHT22;31236;55.026;61.042;2022-07-23T04:12:28;22.00;72.00
45489;DHT22;31236;55.026;61.042;2022-07-23T04:14:59;22.00;70.30
45489;DHT22;31236;55.026;61.042;2022-07-23T04:17:29;22.00;70.70
45489;DHT22;31236;55.026;61.042;2022-07-23T04:19:59;22.00;71.80
45489;DHT22;31236;55.026;61.042;2022-07-23T04:22:30;22.10;72.20
45489;DHT22;31236;55.026;61.042;2022-07-23T04:25:00;22.20;72.30
45489;DHT22;31236;55.026;61.042;2022-07-23T04:27:32;22.20;71.60
45489;DHT22;31236;55.026;61.042;2022-07-23T04:30:03;22.30;71.40
45489;DHT22;31236;55.026;61.042;2022-07-23T04:32:33;22.30;70.80
45489;DHT22;31236;55.026;61.042;2022-07-23T04:35:04;22.40;71.30
45489;DHT22;31236;55.026;61.042;2022-07-23T04:37:35;22.50;71.10
45489;DHT22;31236;55.026;61.042;2022-07-23T04:40:06;22.50;67.90
45489;DHT22;31236;55.026;61.042;2022-07-23T04:42:36;22.50;68.00
45489;DHT22;31236;55.026;61.042;2022-07-23T04:45:07;22.50;68.60
45489;DHT22;31236;55.026;61.042;2022-07-23T04:47:37;22.60;69.60
45489;DHT22;31236;55.026;61.042;2022-07-23T04:50:08;22.60;67.10
45489;DHT22;31236;55.026;61.042;2022-07-23T04:52:38;22.60;67.30
45489;DHT22;31236;55.026;61.042;2022-07-23T04:55:09;22.70;67.90
45489;DHT22;31236;55.026;61.042;2022-07-23T04:57:39;22.70;66.70
45489;DHT22;31236;55.026;61.042;2022-07-23T05:00:11;22.80;67.60
45489;DHT22;31236;55.026;61.042;2022-07-23T05:02:41;22.90;66.90
45489;DHT22;31236;55.026;61.042;2022-07-23T05:05:12;23.00;66.60
45489;DHT22;31236;55.026;61.042;2022-07-23T05:07:42;22.90;67.50
45489;DHT22;31236;55.026;61.042;2022-07-23T05:10:14;22.90;66.30
45489;DHT22;31236;55.026;61.042;2022-07-23T05:12:45;23.00;66.50
45489;DHT22;31236;55.026;61.042;2022-07-23T05:15:15;23.00;65.70
45489;DHT22;31236;55.026;61.042;2022-07-23T05:17:46;23.00;65.50
45489;DHT22;31236;55.026;61.042;2022-07-23T05:20:16;23.10;66.40
45489;DHT22;31236;55.026;61.042;2022-07-23T05:22:46;23.20;66.20
45489;DHT22;31236;55.026;61.042;2022-07-23T05:25:17;23.20;65.30
45489;DHT22;31236;55.026;61.042;2022-07-23T05:27:47;23.30;65.80
45489;DHT22;31236;55.026;61.042;2022-07-23T05:30:18;23.40;65.80
45489;DHT22;31236;55.026;61.042;2022-07-23T05:32:48;23.40;66.30
45489;DHT22;31236;55.026;61.042;2022-07-23T05:35:19;23.50;65.70
45489;DHT22;31236;55.026;61.042;2022-07-23T05:37:50;23.60;65.00
45489;DHT22;31236;55.026;61.042;2022-07-23T05:40:20;23.60;64.80
45489;DHT22;31236;55.026;61.042;2022-07-23T05:42:51;23.70;64.10
45489;DHT22;31236;55.026;61.042;2022-07-23T05:45:21;23.80;64.20
45489;DHT22;31236;55.026;61.042;2022-07-23T05:47:52;23.90;63.60
45489;DHT22;31236;55.026;61.042;2022-07-23T05:50:22;24.00;63.70
45489;DHT22;31236;55.026;61.042;2022-07-23T05:52:52;24.10;64.20
45489;DHT22;31236;55.026;61.042;2022-07-23T05:55:23;24.00;63.20
45489;DHT22;31236;55.026;61.042;2022-07-23T05:57:53;23.90;63.40
45489;DHT22;31236;55.026;61.042;2022-07-23T06:00:23;23.70;64.20
45489;DHT22;31236;55.026;61.042;2022-07-23T06:02:54;23.50;64.10
45489;DHT22;31236;55.026;61.042;2022-07-23T06:05:24;23.40;64.00
45489;DHT22;31236;55.026;61.042;2022-07-23T06:07:55;23.30;64.70
45489;DHT22;31236;55.026;61.042;2022-07-23T06:10:25;23.40;65.10
45489;DHT22;31236;55.026;61.042;2022-07-23T06:12:55;23.60;65.60
45489;DHT22;31236;55.026;61.042;2022-07-23T06:15:26;23.60;64.80
45489;DHT22;31236;55.026;61.042;2022-07-23T06:17:57;23.80;64.70
45489;DHT22;31236;55.026;61.042;2022-07-23T06:20:27;23.90;63.90
45489;DHT22;31236;55.026;61.042;2022-07-23T06:22:57;24.00;62.70
45489;DHT22;31236;55.026;61.042;2022-07-23T06:25:28;24.10;62.80
45489;DHT22;31236;55.026;61.042;2022-07-23T06:27:59;24.20;61.70
45489;DHT22;31236;55.026;61.042;2022-07-23T06:30:29;24.20;62.70
45489;DHT22;31236;55.026;61.042;2022-07-23T06:32:59;24.40;60.90
45489;DHT22;31236;55.026;61.042;2022-07-23T06:35:31;24.50;62.40
45489;DHT22;31236;55.026;61.042;2022-07-23T06:38:02;24.60;61.90
45489;DHT22;31236;55.026;61.042;2022-07-23T06:40:34;24.80;60.20
45489;DHT22;31236;55.026;61.042;2022-07-23T06:43:06;24.90;62.70
45489;DHT22;31236;55.026;61.042;2022-07-23T06:45:38;24.90;61.50
45489;DHT22;31236;55.026;61.042;2022-07-23T06:48:08;24.90;59.90
45489;DHT22;31236;55.026;61.042;2022-07-23T06:50:40;24.80;60.20
45489;DHT22;31236;55.026;61.042;2022-07-23T06:53:14;24.70;61.60
45489;DHT22;31236;55.026;61.042;2022-07-23T06:55:45;24.70;61.30
45489;DHT22;31236;55.026;61.042;2022-07-23T06:58:15;24.70;60.50
45489;DHT22;31236;55.026;61.042;2022-07-23T07:00:47;24.60;60.60
45489;DHT22;31236;55.026;61.042;2022-07-23T07:03:19;24.50;60.10
45489;DHT22;31236;55.026;61.042;2022-07-23T07:05:51;24.40;60.50
45489;DHT22;31236;55.026;61.042;2022-07-23T07:08:21;24.40;60.10
45489;DHT22;31236;55.026;61.042;2022-07-23T07:10:54;24.30;59.80
45489;DHT22;31236;55.026;61.042;2022-07-23T07:13:25;24.30;61.00
45489;DHT22;31236;55.026;61.042;2022-07-23T07:15:59;24.20;60.40
45489;DHT22;31236;55.026;61.042;2022-07-23T07:18:29;24.10;60.40
45489;DHT22;31236;55.026;61.042;2022-07-23T07:21:02;24.10;61.00
45489;DHT22;31236;55.026;61.042;2022-07-23T07:23:34;23.90;61.10
45489;DHT22;31236;55.026;61.042;2022-07-23T07:26:06;24.00;61.30
45489;DHT22;31236;55.026;61.042;2022-07-23T07:28:37;24.30;63.50
45489;DHT22;31236;55.026;61.042;2022-07-23T07:31:07;24.50;60.90
45489;DHT22;31236;55.026;61.042;2022-07-23T07:33:39;24.70;59.10
45489;DHT22;31236;55.026;61.042;2022-07-23T07:36:13;24.80;58.90
45489;DHT22;31236;55.026;61.042;2022-07-23T07:38:44;25.00;57.50
45489;DHT22;31236;55.026;61.042;2022-07-23T07:41:14;25.20;57.80
45489;DHT22;31236;55.026;61.042;2022-07-23T07:43:45;25.20;57.50
45489;DHT22;31236;55.026;61.042;2022-07-23T07:46:15;25.10;58.20
45489;DHT22;31236;55.026;61.042;2022-07-23T07:48:47;24.90;57.70
45489;DHT22;31236;55.026;61.042;2022-07-23T07:51:18;24.60;57.60
45489;DHT22;31236;55.026;61.042;2022-07-23T07:53:52;24.30;58.90
45489;DHT22;31236;55.026;61.042;2022-07-23T07:56:23;24.20;59.70
45489;DHT22;31236;55.026;61.042;2022-07-23T07:58:55;24.00;60.40
45489;DHT22;31236;55.026;61.042;2022-07-23T08:01:25;23.90;60.60
45489;DHT22;31236;55.026;61.042;2022-07-23T08:03:59;24.10;62.60
45489;DHT22;31236;55.026;61.042;2022-07-23T08:06:30;24.40;63.90
45489;DHT22;31236;55.026;61.042;2022-07-23T08:09:02;24.70;60.60
45489;DHT22;31236;55.026;61.042;2022-07-23T08:11:32;24.90;59.90
45489;DHT22;31236;55.026;61.042;2022-07-23T08:14:03;25.00;58.80
45489;DHT22;31236;55.026;61.042;2022-07-23T08:16:37;24.90;57.50
45489;DHT22;31236;55.026;61.042;2022-07-23T08:19:09;25.00;56.50
45489;DHT22;31236;55.026;61.042;2022-07-23T08:21:40;25.10;56.50
45489;DHT22;31236;55.026;61.042;2022-07-23T08:24:10;25.30;55.40
45489;DHT22;31236;55.026;61.042;2022-07-23T08:26:42;25.40;56.30
45489;DHT22;31236;55.026;61.042;2022-07-23T08:29:12;25.60;55.50
45489;DHT22;31236;55.026;61.042;2022-07-23T08:31:43;25.70;54.50
45489;DHT22;31236;55.026;61.042;2022-07-23T08:34:13;25.80;53.90
45489;DHT22;31236;55.026;61.042;2022-07-23T08:36:44;25.90;54.10
45489;DHT22;31236;55.026;61.042;2022-07-23T08:39:14;26.10;53.50
45489;DHT22;31236;55.026;61.042;2022-07-23T08:41:46;25.80;53.00
45489;DHT22;31236;55.026;61.042;2022-07-23T08:44:19;25.70;53.60
45489;DHT22;31236;55.026;61.042;2022-07-23T08:46:49;25.70;53.80
45489;DHT22;31236;55.026;61.042;2022-07-23T08:49:21;25.70;53.80
45489;DHT22;31236;55.026;61.042;2022-07-23T08:51:55;25.90;52.00
45489;DHT22;31236;55.026;61.042;2022-07-23T08:54:24;25.80;52.00
45489;DHT22;31236;55.026;61.042;2022-07-23T08:56:54;25.90;52.40
45489;DHT22;31236;55.026;61.042;2022-07-23T08:59:24;26.00;53.30
45489;DHT22;31236;55.026;61.042;2022-07-23T09:01:55;26.00;52.20
45489;DHT22;31236;55.026;61.042;2022-07-23T09:04:27;26.10;50.90
45489;DHT22;31236;55.026;61.042;2022-07-23T09:06:57;26.30;51.40
45489;DHT22;31236;55.026;61.042;2022-07-23T09:09:28;26.40;53.10
45489;DHT22;31236;55.026;61.042;2022-07-23T09:12:18;26.60;53.30
45489;DHT22;31236;55.026;61.042;2022-07-23T09:14:48;26.70;52.10
45489;DHT22;31236;55.026;61.042;2022-07-23T09:17:19;26.80;53.10
45489;DHT22;31236;55.026;61.042;2022-07-23T09:19:49;26.90;50.40
45489;DHT22;31236;55.026;61.042;2022-07-23T09:22:44;26.90;49.10
45489;DHT22;31236;55.026;61.042;2022-07-23T09:25:46;26.90;49.30
45489;DHT22;31236;55.026;61.042;2022-07-23T09:28:02;26.90;49.50
45489;DHT22;31236;55.026;61.042;2022-07-23T09:30:34;26.90;51.40
45489;DHT22;31236;55.026;61.042;2022-07-23T09:35:55;27.00;50.10
45489;DHT22;31236;55.026;61.042;2022-07-23T09:38:25;27.10;49.90
45489;DHT22;31236;55.026;61.042;2022-07-23T09:41:15;27.10;50.20
45489;DHT22;31236;55.026;61.042;2022-07-23T09:43:46;27.20;48.30
45489;DHT22;31236;55.026;61.042;2022-07-23T09:46:36;27.10;48.50
45489;DHT22;31236;55.026;61.042;2022-07-23T09:49:27;27.00;48.90
45489;DHT22;31236;55.026;61.042;2022-07-23T09:51:59;26.80;49.50
45489;DHT22;31236;55.026;61.042;2022-07-23T09:57:24;26.80;50.70
45489;DHT22;31236;55.026;61.042;2022-07-23T09:59:57;27.00;48.90
45489;DHT22;31236;55.026;61.042;2022-07-23T10:02:31;27.00;50.30
45489;DHT22;31236;55.026;61.042;2022-07-23T10:05:21;26.90;50.50
45489;DHT22;31236;55.026;61.042;2022-07-23T10:07:55;27.00;50.70
45489;DHT22;31236;55.026;61.042;2022-07-23T10:10:27;27.20;51.60
45489;DHT22;31236;55.026;61.042;2022-07-23T10:12:58;27.40;49.10
45489;DHT22;31236;55.026;61.042;2022-07-23T10:15:48;27.50;49.80
45489;DHT22;31236;55.026;61.042;2022-07-23T10:18:18;27.60;50.80
45489;DHT22;31236;55.026;61.042;2022-07-23T10:20:49;27.50;48.80
45489;DHT22;31236;55.026;61.042;2022-07-23T10:36:04;26.90;48.80
45489;DHT22;31236;55.026;61.042;2022-07-23T10:39:26;26.60;49.50
45489;DHT22;31236;55.026;61.042;2022-07-23T10:41:44;26.30;49.40
45489;DHT22;31236;55.026;61.042;2022-07-23T10:44:37;26.20;51.00
45489;DHT22;31236;55.026;61.042;2022-07-23T10:47:07;26.10;50.70
45489;DHT22;31236;55.026;61.042;2022-07-23T10:58:48;25.90;51.00
45489;DHT22;31236;55.026;61.042;2022-07-23T11:01:39;25.90;52.40
45489;DHT22;31236;55.026;61.042;2022-07-23T11:04:12;26.10;52.20
45489;DHT22;31236;55.026;61.042;2022-07-23T11:09:53;26.40;48.90
45489;DHT22;31236;55.026;61.042;2022-07-23T11:15:18;26.90;49.00
45489;DHT22;31236;55.026;61.042;2022-07-23T11:18:08;27.20;49.80
45489;DHT22;31236;55.026;61.042;2022-07-23T11:20:41;27.40;48.80
45489;DHT22;31236;55.026;61.042;2022-07-23T11:23:15;27.60;48.00
45489;DHT22;31236;55.026;61.042;2022-07-23T11:25:47;27.80;47.30
45489;DHT22;31236;55.026;61.042;2022-07-23T11:28:18;27.80;47.70
45489;DHT22;31236;55.026;61.042;2022-07-23T11:30:50;27.60;46.90
45489;DHT22;31236;55.026;61.042;2022-07-23T11:33:22;27.50;47.80
45489;DHT22;31236;55.026;61.042;2022-07-23T11:38:45;27.30;47.70
45489;DHT22;31236;55.026;61.042;2022-07-23T11:41:16;27.30;46.90
45489;DHT22;31236;55.026;61.042;2022-07-23T11:43:46;27.30;47.60
45489;DHT22;31236;55.026;61.042;2022-07-23T11:46:16;27.40;48.40
45489;DHT22;31236;55.026;61.042;2022-07-23T11:49:00;27.50;48.60
45489;DHT22;31236;55.026;61.042;2022-07-23T11:51:40;27.70;45.20
45489;DHT22;31236;55.026;61.042;2022-07-23T11:54:10;27.70;48.10
45489;DHT22;31236;55.026;61.042;2022-07-23T11:57:16;27.60;47.00
45489;DHT22;31236;55.026;61.042;2022-07-23T11:59:17;27.70;46.40
45489;DHT22;31236;55.026;61.042;2022-07-23T12:02:08;27.80;46.40
45489;DHT22;31236;55.026;61.042;2022-07-23T12:07:51;27.80;46.30
45489;DHT22;31236;55.026;61.042;2022-07-23T12:10:24;27.90;45.60
45489;DHT22;31236;55.026;61.042;2022-07-23T12:13:15;27.80;45.80
45489;DHT22;31236;55.026;61.042;2022-07-23T12:15:51;27.80;45.40
45489;DHT22;31236;55.026;61.042;2022-07-23T12:18:23;27.70;45.10
45489;DHT22;31236;55.026;61.042;2022-07-23T12:20:55;27.70;47.00
45489;DHT22;31236;55.026;61.042;2022-07-23T12:23:27;27.50;46.70
45489;DHT22;31236;55.026;61.042;2022-07-23T12:26:01;27.50;47.00
45489;DHT22;31236;55.026;61.042;2022-07-23T12:28:34;27.60;46.90
45489;DHT22;31236;55.026;61.042;2022-07-23T12:31:05;27.60;47.50
45489;DHT22;31236;55.026;61.042;2022-07-23T12:33:56;27.70;45.90
45489;DHT22;31236;55.026;61.042;2022-07-23T12:36:49;27.70;45.80
45489;DHT22;31236;55.026;61.042;2022-07-23T12:39:41;27.70;47.30
45489;DHT22;31236;55.026;61.042;2022-07-23T12:42:14;27.70;46.20
45489;DHT22;31236;55.026;61.042;2022-07-23T12:47:58;27.50;45.60
45489;DHT22;31236;55.026;61.042;2022-07-23T12:50:50;27.50;45.90
45489;DHT22;31236;55.026;61.042;2022-07-23T12:53:59;27.40;45.40
45489;DHT22;31236;55.026;61.042;2022-07-23T13:01:56;27.30;45.60
45489;DHT22;31236;55.026;61.042;2022-07-23T13:04:29;27.20;46.20
45489;DHT22;31236;55.026;61.042;2022-07-23T13:06:59;27.20;45.90
45489;DHT22;31236;55.026;61.042;2022-07-23T13:09:31;27.20;46.00
45489;DHT22;31236;55.026;61.042;2022-07-23T13:12:03;27.30;44.70
45489;DHT22;31236;55.026;61.042;2022-07-23T13:14:33;27.30;45.70
45489;DHT22;31236;55.026;61.042;2022-07-23T13:17:04;27.40;46.40
45489;DHT22;31236;55.026;61.042;2022-07-23T13:19:34;27.40;45.10
45489;DHT22;31236;55.026;61.042;2022-07-23T13:22:06;27.50;45.50
45489;DHT22;31236;55.026;61.042;2022-07-23T13:24:38;27.50;45.80
45489;DHT22;31236;55.026;61.042;2022-07-23T13:27:09;27.30;44.80
45489;DHT22;31236;55.026;61.042;2022-07-23T13:29:39;27.10;45.70
45489;DHT22;31236;55.026;61.042;2022-07-23T13:32:12;26.90;45.50
45489;DHT22;31236;55.026;61.042;2022-07-23T13:34:43;26.80;46.00
45489;DHT22;31236;55.026;61.042;2022-07-23T13:37:13;26.60;47.00
45489;DHT22;31236;55.026;61.042;2022-07-23T13:39:44;26.40;47.70
45489;DHT22;31236;55.026;61.042;2022-07-23T13:42:14;26.20;48.00
45489;DHT22;31236;55.026;61.042;2022-07-23T13:44:46;26.20;49.20
45489;DHT22;31236;55.026;61.042;2022-07-23T13:47:17;26.20;49.40
45489;DHT22;31236;55.026;61.042;2022-07-23T13:49:47;26.30;51.40
45489;DHT22;31236;55.026;61.042;2022-07-23T13:52:20;26.40;50.10
45489;DHT22;31236;55.026;61.042;2022-07-23T13:54:50;26.50;51.80
45489;DHT22;31236;55.026;61.042;2022-07-23T13:57:21;26.60;51.90
45489;DHT22;31236;55.026;61.042;2022-07-23T13:59:51;26.70;52.50
45489;DHT22;31236;55.026;61.042;2022-07-23T14:02:21;26.80;54.00
45489;DHT22;31236;55.026;61.042;2022-07-23T14:04:53;26.80;50.90
45489;DHT22;31236;55.026;61.042;2022-07-23T14:07:23;26.80;49.90
45489;DHT22;31236;55.026;61.042;2022-07-23T14:09:53;26.70;50.40
45489;DHT22;31236;55.026;61.042;2022-07-23T14:12:24;26.80;49.80
45489;DHT22;31236;55.026;61.042;2022-07-23T14:14:54;26.80;49.10
45489;DHT22;31236;55.026;61.042;2022-07-23T14:17:25;26.90;49.60
45489;DHT22;31236;55.026;61.042;2022-07-23T14:19:54;27.00;50.80
45489;DHT22;31236;55.026;61.042;2022-07-23T14:22:25;27.00;50.00
45489;DHT22;31236;55.026;61.042;2022-07-23T14:24:55;26.90;49.80
45489;DHT22;31236;55.026;61.042;2022-07-23T14:27:26;26.90;49.60
45489;DHT22;31236;55.026;61.042;2022-07-23T14:29:57;26.90;50.10
45489;DHT22;31236;55.026;61.042;2022-07-23T14:32:28;27.00;49.90
45489;DHT22;31236;55.026;61.042;2022-07-23T14:34:58;26.90;53.10
45489;DHT22;31236;55.026;61.042;2022-07-23T14:37:29;26.90;52.40
45489;DHT22;31236;55.026;61.042;2022-07-23T14:40:00;26.90;52.40
45489;DHT22;31236;55.026;61.042;2022-07-23T14:42:32;26.90;51.90
45489;DHT22;31236;55.026;61.042;2022-07-23T14:45:03;26.90;51.00
45489;DHT22;31236;55.026;61.042;2022-07-23T14:47:34;26.80;52.00
45489;DHT22;31236;55.026;61.042;2022-07-23T14:50:05;26.80;52.10
45489;DHT22;31236;55.026;61.042;2022-07-23T14:52:35;26.70;52.10
45489;DHT22;31236;55.026;61.042;2022-07-23T14:55:05;26.50;52.40
45489;DHT22;31236;55.026;61.042;2022-07-23T14:57:38;26.50;53.00
45489;DHT22;31236;55.026;61.042;2022-07-23T15:00:09;26.30;52.80
45489;DHT22;31236;55.026;61.042;2022-07-23T15:02:40;26.30;52.90
45489;DHT22;31236;55.026;61.042;2022-07-23T15:05:11;26.20;53.00
45489;DHT22;31236;55.026;61.042;2022-07-23T15:07:41;26.00;52.90
45489;DHT22;31236;55.026;61.042;2022-07-23T15:10:11;25.90;54.50
45489;DHT22;31236;55.026;61.042;2022-07-23T15:12:42;25.80;54.10
45489;DHT22;31236;55.026;61.042;2022-07-23T15:15:13;25.70;54.80
45489;DHT22;31236;55.026;61.042;2022-07-23T15:17:43;25.70;55.60
45489;DHT22;31236;55.026;61.042;2022-07-23T15:20:13;25.50;55.10
45489;DHT22;31236;55.026;61.042;2022-07-23T15:22:44;25.40;57.00
45489;DHT22;31236;55.026;61.042;2022-07-23T15:25:15;25.40;57.60
45489;DHT22;31236;55.026;61.042;2022-07-23T15:27:45;25.20;56.90
45489;DHT22;31236;55.026;61.042;2022-07-23T15:30:15;25.10;58.30
45489;DHT22;31236;55.026;61.042;2022-07-23T15:32:46;25.00;58.40
45489;DHT22;31236;55.026;61.042;2022-07-23T15:35:16;24.90;59.00
45489;DHT22;31236;55.026;61.042;2022-07-23T15:37:50;24.80;58.80
45489;DHT22;31236;55.026;61.042;2022-07-23T15:40:20;24.70;59.30
45489;DHT22;31236;55.026;61.042;2022-07-23T15:42:53;24.60;59.10
45489;DHT22;31236;55.026;61.042;2022-07-23T15:45:23;24.60;59.40
45489;DHT22;31236;55.026;61.042;2022-07-23T15:47:58;24.50;60.00
45489;DHT22;31236;55.026;61.042;2022-07-23T15:50:30;24.40;60.40
45489;DHT22;31236;55.026;61.042;2022-07-23T15:53:01;24.30;61.10
45489;DHT22;31236;55.026;61.042;2022-07-23T15:55:33;24.20;61.50
45489;DHT22;31236;55.026;61.042;2022-07-23T15:58:06;24.10;61.60
45489;DHT22;31236;55.026;61.042;2022-07-23T16:00:39;24.00;60.90
45489;DHT22;31236;55.026;61.042;2022-07-23T16:03:11;23.90;61.20
45489;DHT22;31236;55.026;61.042;2022-07-23T16:05:42;23.80;61.10
45489;DHT22;31236;55.026;61.042;2022-07-23T16:08:13;23.80;61.50
45489;DHT22;31236;55.026;61.042;2022-07-23T16:10:44;23.70;61.40
45489;DHT22;31236;55.026;61.042;2022-07-23T16:13:15;23.70;61.30
45489;DHT22;31236;55.026;61.042;2022-07-23T16:15:45;23.60;61.30
45489;DHT22;31236;55.026;61.042;2022-07-23T16:18:17;23.50;62.10
45489;DHT22;31236;55.026;61.042;2022-07-23T16:20:50;23.40;62.30
45489;DHT22;31236;55.026;61.042;2022-07-23T16:23:20;23.40;62.00
45489;DHT22;31236;55.026;61.042;2022-07-23T16:25:54;23.30;62.30
45489;DHT22;31236;55.026;61.042;2022-07-23T16:28:27;23.20;62.60
45489;DHT22;31236;55.026;61.042;2022-07-23T16:30:59;23.20;63.20
45489;DHT22;31236;55.026;61.042;2022-07-23T16:33:31;23.10;63.30